Time;durP1;ratioP1;P1;durP2;ratioP2;P2;SDS_P1;SDS_P2;PMS_P1;PMS_P2;Temp;Humidity;BMP_temperature;BMP_pressure;BME280_temperature;BME280_humidity;BME280_pressure;Samples;Min_cycle;Max_cycle;Signal;HPM_P1;HPM_P2
2023/08/14 00:00:00;;;;;;;;;17.80;16.40;;;;;21.37;36.01;99704.00;5110948;28;8848;-76
2023/08/14 00:02:29;;;;;;;;;19.40;19.40;;;;;21.35;37.19;99705.91;5110453;28;8979;-76
2023/08/14 00:04:58;;;;;;;;;19.20;19.20;;;;;21.49;37.86;99706.84;5057365;28;8871;-77
2023/08/14 00:07:28;;;;;;;;;22.40;21.60;;;;;21.57;38.63;99693.81;5109873;28;8855;-75
2023/08/14 00:09:57;;;;;;;;;26.40;24.00;;;;;21.63;38.70;99697.00;5072888;28;8840;-75
2023/08/14 00:12:26;;;;;;;;;22.20;21.00;;;;;21.65;38.88;99699.56;5053986;28;8830;-76
2023/08/14 00:14:55;;;;;;;;;21.00;21.00;;;;;21.67;38.79;99700.31;5088980;28;8846;-77
2023/08/14 00:17:23;;;;;;;;;21.00;20.20;;;;;21.67;37.82;99694.97;5054064;28;8889;-77
2023/08/14 00:19:53;;;;;;;;;21.80;21.20;;;;;21.66;38.00;99695.94;5089279;28;8833;-77
2023/08/14 00:22:21;;;;;;;;;23.40;23.40;;;;;21.64;38.26;99701.38;5071150;28;8992;-75
2023/08/14 00:24:52;;;;;;;;;20.20;20.20;;;;;21.66;38.33;99697.75;5089297;28;8845;-76
2023/08/14 00:27:21;;;;;;;;;22.00;21.40;;;;;21.62;38.45;99695.28;5093421;28;8843;-74
2023/08/14 00:29:50;;;;;;;;;23.40;21.80;;;;;21.61;38.12;99690.88;5109031;28;8888;-76
2023/08/14 00:32:18;;;;;;;;;20.40;20.40;;;;;21.53;37.48;99689.63;5090365;28;8852;-76
2023/08/14 00:34:48;;;;;;;;;21.20;21.20;;;;;21.51;38.04;99688.88;5072415;28;8876;-75
2023/08/14 00:37:16;;;;;;;;;28.75;26.50;;;;;21.15;39.25;99692.94;5086851;28;9621;-75
2023/08/14 00:39:45;;;;;;;;;22.80;22.20;;;;;20.99;39.39;99690.34;5088761;28;8880;-73
2023/08/14 00:42:15;;;;;;;;;21.40;21.40;;;;;21.06;39.38;99697.03;5086778;28;8950;-75
2023/08/14 00:44:45;;;;;;;;;16.20;16.20;;;;;21.03;40.02;99695.41;5070948;28;8930;-75
2023/08/14 00:47:13;;;;;;;;;22.80;22.60;;;;;21.08;39.96;99691.59;5027010;28;8871;-76
2023/08/14 00:49:42;;;;;;;;;3.20;3.20;;;;;21.08;40.09;99691.59;5092075;28;8851;-77
2023/08/14 00:52:11;;;;;;;;;28.60;27.20;;;;;21.12;41.56;99693.97;5090565;28;8933;-76
2023/08/14 00:54:40;;;;;;;;;27.00;24.80;;;;;21.18;41.86;99690.94;5055998;28;8896;-74
2023/08/14 00:57:09;;;;;;;;;25.40;25.40;;;;;21.22;41.99;99695.13;5089333;28;9607;-74
2023/08/14 00:59:40;;;;;;;;;24.60;24.60;;;;;21.21;41.29;99698.72;5081658;28;8832;-77
2023/08/14 01:02:08;;;;;;;;;25.60;24.00;;;;;21.19;40.87;99700.66;5108800;28;8869;-75
2023/08/14 01:04:38;;;;;;;;;26.40;24.60;;;;;21.16;41.32;99694.63;5101204;28;9588;-76
2023/08/14 01:07:06;;;;;;;;;21.60;21.60;;;;;21.14;40.73;99692.06;5090481;28;8965;-75
2023/08/14 01:09:35;;;;;;;;;21.20;21.20;;;;;21.12;40.75;99696.63;5107498;28;8843;-74
2023/08/14 01:12:10;;;;;;;;;24.00;22.60;;;;;21.17;40.54;99701.72;5092435;28;8951;-74
2023/08/14 01:14:44;;;;;;;;;24.40;22.60;;;;;21.11;40.72;99696.75;5088630;28;8830;-75
2023/08/14 01:17:17;;;;;;;;;19.60;19.60;;;;;21.08;40.99;99694.25;5097067;28;8834;-75
2023/08/14 01:19:51;;;;;;;;;25.00;25.00;;;;;21.04;40.51;99688.25;5057407;28;8846;-76
2023/08/14 01:22:32;;;;;;;;;23.40;22.40;;;;;21.08;40.59;99691.59;5096126;28;8874;-72
2023/08/14 01:25:25;;;;;;;;;22.20;21.60;;;;;21.16;39.65;99697.31;5090437;28;8856;-74
2023/08/14 01:27:56;;;;;;;;;22.20;21.40;;;;;20.98;41.17;99697.50;5089003;28;9795;-74
2023/08/14 01:30:25;;;;;;;;;20.40;18.60;;;;;20.96;40.42;99699.41;5100488;28;8855;-76
2023/08/14 01:32:54;;;;;;;;;23.80;23.80;;;;;20.96;40.67;99695.91;5045289;28;8865;-74
2023/08/14 01:35:25;;;;;;;;;26.40;23.40;;;;;20.98;40.35;99693.97;5029040;28;8942;-77
2023/08/14 01:38:01;;;;;;;;;24.20;24.20;;;;;21.01;40.02;99685.75;5045484;28;8881;-76
2023/08/14 01:40:44;;;;;;;;;21.60;21.60;;;;;21.02;40.11;99685.66;5028956;28;8849;-76
2023/08/14 01:43:18;;;;;;;;;21.80;20.40;;;;;20.98;39.99;99688.63;5045858;28;9618;-75
2023/08/14 01:45:47;;;;;;;;;23.20;21.20;;;;;20.95;40.28;99681.66;5046128;28;8887;-73
2023/08/14 01:48:16;;;;;;;;;22.80;22.20;;;;;20.92;40.37;99686.31;5028031;28;8864;-76
2023/08/14 01:50:47;;;;;;;;;20.40;20.40;;;;;20.94;40.70;99684.44;5029322;28;8864;-75
2023/08/14 01:53:16;;;;;;;;;22.20;21.80;;;;;20.94;41.41;99679.94;5029225;28;8958;-74
2023/08/14 01:55:47;;;;;;;;;20.60;19.00;;;;;20.93;40.82;99678.22;5045629;28;8872;-75
2023/08/14 01:58:16;;;;;;;;;23.00;22.60;;;;;20.93;42.04;99677.38;5028534;28;8910;-77
2023/08/14 02:00:47;;;;;;;;;24.60;23.00;;;;;20.91;41.74;99679.25;5045232;28;8865;-76
2023/08/14 02:03:15;;;;;;;;;24.80;23.60;;;;;20.91;41.85;99687.25;4984894;28;8853;-75
2023/08/14 02:05:45;;;;;;;;;22.60;22.40;;;;;20.86;41.27;99677.72;5090033;28;8968;-75
2023/08/14 02:08:14;;;;;;;;;25.20;25.00;;;;;20.85;41.18;99684.00;5092905;28;8843;-77
2023/08/14 02:10:43;;;;;;;;;26.20;26.20;;;;;20.83;41.20;99677.91;5112036;28;9075;-76
2023/08/14 02:13:13;;;;;;;;;24.40;22.80;;;;;20.82;41.25;99676.19;5106896;28;8873;-75
2023/08/14 02:15:45;;;;;;;;;26.40;26.00;;;;;20.82;41.13;99676.19;5073203;28;8932;-76
2023/08/14 02:18:15;;;;;;;;;25.40;24.00;;;;;20.77;41.85;99670.28;5091130;28;8864;-75
2023/08/14 02:20:49;;;;;;;;;25.40;24.00;;;;;20.82;41.67;99678.88;5026950;28;8838;-76
2023/08/14 02:23:17;;;;;;;;;26.00;23.80;;;;;20.78;41.72;99676.47;5090137;28;8840;-76
2023/08/14 02:25:46;;;;;;;;;30.60;28.60;;;;;20.64;42.92;99680.84;5092493;28;9632;-75
2023/08/14 02:28:16;;;;;;;;;27.60;26.60;;;;;20.31;44.08;99680.19;5090081;28;8835;-74
2023/08/14 02:30:45;;;;;;;;;28.00;26.20;;;;;20.27;44.95;99685.75;5068974;28;9013;-74
2023/08/14 02:33:14;;;;;;;;;26.80;26.00;;;;;20.30;44.07;99682.03;5034372;28;8883;-75
2023/08/14 02:35:43;;;;;;;;;30.20;27.40;;;;;20.28;44.38;99681.25;4992144;28;8902;-74
2023/08/14 02:38:12;;;;;;;;;25.60;24.80;;;;;20.32;43.78;99684.59;5035261;28;8867;-74
2023/08/14 02:40:45;;;;;;;;;29.40;27.80;;;;;20.32;43.91;99682.78;5033320;28;8831;-75
2023/08/14 02:43:13;;;;;;;;;28.60;27.00;;;;;20.30;45.08;99695.38;5015584;28;8832;-76
2023/08/14 02:45:44;;;;;;;;;29.00;27.40;;;;;20.01;45.56;99686.34;5048330;28;8840;-75
2023/08/14 02:48:12;;;;;;;;;29.50;29.50;;;;;19.99;45.64;99696.25;5031897;28;8856;-74
2023/08/14 02:50:41;;;;;;;;;30.20;28.00;;;;;20.06;46.07;99695.81;5043311;28;8863;-73
2023/08/14 02:53:10;;;;;;;;;26.50;26.25;;;;;20.11;45.83;99690.22;5054870;28;8863;-78
2023/08/14 02:55:39;;;;;;;;;29.00;27.75;;;;;20.13;45.82;99693.66;5062621;28;8832;-77
2023/08/14 02:58:08;;;;;;;;;29.00;26.20;;;;;20.20;45.76;99689.69;5045123;28;8843;-76
2023/08/14 03:00:37;;;;;;;;;21.60;20.40;;;;;20.21;45.55;99694.06;4983689;28;9707;-75
2023/08/14 03:03:07;;;;;;;;;25.00;24.20;;;;;20.23;45.28;99694.00;5042098;28;8898;-74
2023/08/14 03:05:37;;;;;;;;;25.40;24.40;;;;;20.22;45.31;99692.28;5050838;28;9034;-77
2023/08/14 03:08:06;;;;;;;;;31.00;27.60;;;;;20.24;45.42;99695.75;5054891;28;8945;-74
2023/08/14 03:10:35;;;;;;;;;27.00;26.40;;;;;20.21;45.16;99696.72;5086801;28;8839;-74
2023/08/14 03:13:04;;;;;;;;;28.60;27.40;;;;;20.10;45.03;99697.38;5041996;28;8875;-76
2023/08/14 03:15:33;;;;;;;;;23.00;21.40;;;;;20.01;45.95;99702.38;5053666;28;8832;-73
2023/08/14 03:18:02;;;;;;;;;28.00;28.00;;;;;19.98;45.54;99702.56;5038357;28;8881;-76
2023/08/14 03:20:32;;;;;;;;;29.80;28.60;;;;;20.02;45.57;99704.09;5089881;28;8858;-75
2023/08/14 03:23:01;;;;;;;;;27.60;27.60;;;;;19.96;45.70;99702.63;5066805;28;8863;-75
2023/08/14 03:25:30;;;;;;;;;54.00;45.25;;;;;19.93;45.78;99716.16;5050447;28;8840;-77
2023/08/14 03:27:59;;;;;;;;;63.00;50.67;;;;;19.88;45.73;99712.91;5051213;28;9655;-75
2023/08/14 03:30:28;;;;;;;;;49.50;40.25;;;;;19.90;46.24;99709.19;5005748;28;8918;-75
2023/08/14 03:32:57;;;;;;;;;24.40;24.40;;;;;19.94;46.09;99709.88;5003863;28;8878;-77
2023/08/14 03:35:27;;;;;;;;;30.50;27.75;;;;;20.00;46.08;99711.34;5067743;28;8863;-75
2023/08/14 03:37:57;;;;;;;;;29.60;29.40;;;;;20.01;46.24;99713.03;5067550;28;8879;-75
2023/08/14 03:40:27;;;;;;;;;30.20;29.60;;;;;20.00;46.05;99709.50;5064260;28;8990;-75
2023/08/14 03:42:56;;;;;;;;;29.25;26.50;;;;;20.01;45.63;99715.69;5051432;28;8974;-76
2023/08/14 03:45:25;;;;;;;;;27.75;27.25;;;;;20.00;45.52;99712.19;5067312;28;8878;-76
2023/08/14 03:47:55;;;;;;;;;32.00;30.25;;;;;20.01;45.59;99711.25;5050801;28;8859;-75
2023/08/14 03:50:24;;;;;;;;;48.00;40.75;;;;;20.01;45.88;99713.03;5033902;28;8863;-76
2023/08/14 03:52:54;;;;;;;;;32.50;31.25;;;;;20.04;45.83;99710.19;5034570;28;9781;-78
2023/08/14 03:55:25;;;;;;;;;32.25;30.75;;;;;20.06;45.98;99714.50;5072755;28;8850;-76
2023/08/14 03:57:54;;;;;;;;;36.75;32.25;;;;;19.86;47.00;99712.97;5083770;28;8994;-76
2023/08/14 04:00:23;;;;;;;;;29.75;29.75;;;;;19.90;46.32;99717.19;5092641;28;8950;-75
2023/08/14 04:02:52;;;;;;;;;36.00;32.75;;;;;19.96;46.66;99720.47;5093607;28;8861;-75
2023/08/14 04:05:21;;;;;;;;;38.00;33.25;;;;;19.98;46.71;99716.75;5091886;28;8850;-76
2023/08/14 04:07:50;;;;;;;;;36.00;32.00;;;;;20.03;46.61;99717.34;5095178;28;8984;-76
2023/08/14 04:10:19;;;;;;;;;51.00;42.50;;;;;20.06;46.35;99722.50;5081438;28;8926;-76
2023/08/14 04:12:50;;;;;;;;;45.50;36.50;;;;;20.13;46.35;99723.00;5071186;28;8916;-77
2023/08/14 04:15:20;;;;;;;;;35.75;31.75;;;;;20.16;46.35;99725.50;5090571;28;8872;-74
2023/08/14 04:17:49;;;;;;;;;32.00;31.00;;;;;20.21;46.81;99726.09;5109547;28;8856;-75
2023/08/14 04:20:18;;;;;;;;;32.75;29.75;;;;;20.28;46.48;99724.81;5084645;28;8844;-74
2023/08/14 04:22:47;;;;;;;;;29.50;28.75;;;;;20.35;46.37;99728.00;5059271;28;9002;-75
2023/08/14 04:25:18;;;;;;;;;62.75;51.25;;;;;20.39;46.20;99734.88;5111774;28;8863;-75
2023/08/14 04:27:48;;;;;;;;;39.25;34.00;;;;;20.37;46.21;99738.56;5061630;28;8983;-76
2023/08/14 04:30:18;;;;;;;;;37.25;32.75;;;;;20.40;46.61;99739.25;5036380;28;8826;-75
2023/08/14 04:32:47;;;;;;;;;30.80;29.60;;;;;20.45;46.66;99745.19;5070915;28;8894;-76
2023/08/14 04:35:17;;;;;;;;;28.00;28.00;;;;;20.51;46.77;99746.63;5070785;28;8858;-78
2023/08/14 04:37:49;;;;;;;;;45.00;38.25;;;;;20.56;46.41;99749.91;5088991;28;8850;-76
2023/08/14 04:40:18;;;;;;;;;51.25;43.25;;;;;20.62;46.27;99744.19;5028057;28;8882;-77
2023/08/14 04:42:48;;;;;;;;;38.00;33.75;;;;;20.66;46.03;99752.88;5065962;28;8880;-76
2023/08/14 04:45:17;;;;;;;;;45.25;37.25;;;;;20.73;45.79;99751.56;5047532;28;9566;-75
2023/08/14 04:47:46;;;;;;;;;27.75;27.75;;;;;20.81;45.33;99751.09;4997617;28;8903;-75
2023/08/14 04:50:15;;;;;;;;;32.25;31.25;;;;;20.87;44.94;99756.91;5066022;28;9593;-74
2023/08/14 04:52:46;;;;;;;;;35.50;32.50;;;;;20.96;45.06;99752.00;5044988;28;8924;-75
2023/08/14 04:55:15;;;;;;;;;34.00;32.25;;;;;20.98;45.26;99752.78;5049096;28;8878;-75
2023/08/14 04:57:44;;;;;;;;;37.00;33.25;;;;;21.00;44.62;99753.53;5047422;28;8893;-78
2023/08/14 05:00:15;;;;;;;;;36.75;32.75;;;;;21.10;45.16;99759.19;5044534;28;8886;-77
2023/08/14 05:02:45;;;;;;;;;37.25;33.25;;;;;21.16;45.07;99756.13;5061354;28;8867;-74
2023/08/14 05:05:14;;;;;;;;;38.25;33.50;;;;;21.26;44.76;99751.94;5017686;28;10044;-76
2023/08/14 05:07:44;;;;;;;;;35.25;32.50;;;;;21.38;44.22;99752.97;5055848;28;8846;-74
2023/08/14 05:10:14;;;;;;;;;37.00;33.00;;;;;21.58;43.52;99751.72;5048571;28;9572;-74
2023/08/14 05:12:44;;;;;;;;;31.75;30.25;;;;;21.74;43.79;99756.97;5065233;28;8875;-78
2023/08/14 05:15:14;;;;;;;;;39.00;34.75;;;;;21.81;43.28;99750.28;5101044;28;8860;-76
2023/08/14 05:17:43;;;;;;;;;44.00;35.25;;;;;21.73;44.11;99756.13;5099625;28;8902;-74
2023/08/14 05:20:12;;;;;;;;;39.00;34.25;;;;;21.74;43.99;99757.81;5092719;28;8951;-75
2023/08/14 05:22:43;;;;;;;;;41.00;35.75;;;;;21.78;44.35;99759.34;5098477;28;8861;-75
2023/08/14 05:25:12;;;;;;;;;43.00;37.25;;;;;21.84;44.25;99758.09;5045258;28;8885;-76
2023/08/14 05:27:41;;;;;;;;;34.00;31.50;;;;;21.95;44.19;99757.41;5046424;28;8913;-77
2023/08/14 05:30:11;;;;;;;;;35.50;31.50;;;;;22.06;43.98;99759.38;5063871;28;8958;-76
2023/08/14 05:32:41;;;;;;;;;36.25;32.25;;;;;22.23;43.86;99765.31;5064783;28;8855;-77
2023/08/14 05:35:10;;;;;;;;;34.75;32.25;;;;;22.36;43.26;99764.56;5013434;28;8927;-77
2023/08/14 05:37:40;;;;;;;;;33.75;32.00;;;;;22.54;43.49;99768.69;5065200;28;8867;-75
2023/08/14 05:40:12;;;;;;;;;39.25;33.25;;;;;22.64;43.42;99770.72;5065551;28;8863;-78
2023/08/14 05:42:41;;;;;;;;;34.50;32.50;;;;;22.71;43.25;99770.22;5068294;28;8860;-78
2023/08/14 05:45:10;;;;;;;;;41.25;35.50;;;;;22.75;42.50;99774.41;5049896;28;8883;-77
2023/08/14 05:47:41;;;;;;;;;33.50;32.00;;;;;22.85;42.77;99777.31;5017229;28;8980;-78
2023/08/14 05:50:10;;;;;;;;;38.25;33.00;;;;;22.85;42.57;99776.44;5058238;28;8842;-75
2023/08/14 05:52:39;;;;;;;;;38.50;35.25;;;;;23.02;42.27;99775.31;5035798;28;8872;-78
2023/08/14 05:55:08;;;;;;;;;38.25;33.75;;;;;23.10;42.24;99768.44;5055516;28;9701;-74
2023/08/14 05:57:37;;;;;;;;;37.25;33.00;;;;;23.20;42.07;99776.69;5069881;28;9049;-75
2023/08/14 06:00:10;;;;;;;;;38.75;35.25;;;;;23.31;41.99;99781.31;5005880;28;8863;-76
2023/08/14 06:02:45;;;;;;;;;38.75;35.00;;;;;23.47;41.47;99779.25;5011310;28;8978;-76
2023/08/14 06:05:15;;;;;;;;;35.50;32.50;;;;;23.56;41.25;99777.75;4992330;28;8884;-78
2023/08/14 06:07:43;;;;;;;;;40.25;35.00;;;;;23.68;40.94;99782.25;5001884;28;8868;-76
2023/08/14 06:10:12;;;;;;;;;32.25;31.25;;;;;23.82;40.92;99783.09;4995030;28;8960;-79
2023/08/14 06:12:42;;;;;;;;;36.00;32.00;;;;;23.92;40.53;99779.63;5010697;28;9621;-75
2023/08/14 06:15:12;;;;;;;;;36.00;32.00;;;;;24.11;40.71;99784.50;5009922;28;9868;-74
2023/08/14 06:17:40;;;;;;;;;30.50;28.50;;;;;24.28;40.81;99777.91;5009590;28;8904;-75
2023/08/14 06:20:12;;;;;;;;;28.00;27.25;;;;;24.41;40.06;99779.66;5008890;28;8949;-74
2023/08/14 06:22:43;;;;;;;;;24.20;22.60;;;;;24.46;39.62;99785.53;5007301;28;8855;-75
2023/08/14 06:25:13;;;;;;;;;22.40;22.40;;;;;24.41;39.95;99785.03;4974047;28;8901;-79
2023/08/14 06:27:42;;;;;;;;;23.00;21.00;;;;;24.27;39.63;99781.53;4999819;28;8902;-76
2023/08/14 06:30:12;;;;;;;;;18.40;18.40;;;;;24.19;39.59;99783.94;5040890;28;8866;-80
2023/08/14 06:32:40;;;;;;;;;24.00;23.80;;;;;24.16;39.40;99784.16;5097962;28;8844;-77
2023/08/14 06:35:11;;;;;;;;;21.60;20.20;;;;;24.39;39.13;99786.97;5094232;28;8835;-75
2023/08/14 06:37:40;;;;;;;;;24.60;23.80;;;;;24.39;39.55;99784.28;5107686;28;8863;-76
2023/08/14 06:40:10;;;;;;;;;24.20;24.20;;;;;24.32;39.99;99792.81;5112603;28;8875;-79
2023/08/14 06:42:38;;;;;;;;;20.20;19.60;;;;;24.52;39.35;99790.44;5060580;28;8835;-76
2023/08/14 06:45:09;;;;;;;;;20.80;20.80;;;;;24.51;39.54;99792.28;5027175;28;9108;-79
2023/08/14 06:47:44;;;;;;;;;26.60;25.00;;;;;24.45;39.99;99791.88;5110938;28;8958;-75
2023/08/14 06:50:15;;;;;;;;;24.20;23.00;;;;;24.60;39.81;99790.72;5093643;28;8962;-77
2023/08/14 06:52:43;;;;;;;;;21.60;20.80;;;;;24.69;39.38;99797.22;5092390;28;8844;-78
2023/08/14 06:55:12;;;;;;;;;19.20;18.80;;;;;24.78;38.31;99799.25;5090706;28;8850;-79
2023/08/14 06:57:41;;;;;;;;;19.80;19.40;;;;;24.74;38.51;99793.25;5078050;28;8846;-78
2023/08/14 07:00:13;;;;;;;;;21.40;19.60;;;;;24.74;37.39;99792.41;5105595;28;8908;-78
2023/08/14 07:02:45;;;;;;;;;20.20;19.40;;;;;24.50;38.03;99792.38;5094643;28;8995;-77
2023/08/14 07:05:16;;;;;;;;;20.20;20.00;;;;;24.48;38.12;99797.03;5072630;28;8868;-78
2023/08/14 07:07:44;;;;;;;;;23.60;22.40;;;;;24.34;38.02;99798.06;5104267;28;10029;-77
2023/08/14 07:10:13;;;;;;;;;25.20;24.20;;;;;24.26;38.19;99798.66;5108416;28;8832;-79
2023/08/14 07:12:44;;;;;;;;;23.80;23.80;;;;;24.46;37.99;99788.22;5048302;28;8845;-78
2023/08/14 07:15:13;;;;;;;;;21.00;20.00;;;;;24.31;38.20;99785.72;5101309;28;8878;-81
2023/08/14 07:17:42;;;;;;;;;23.60;22.60;;;;;24.35;37.76;99786.34;5102237;28;8955;-78
2023/08/14 07:20:12;;;;;;;;;21.00;19.80;;;;;24.38;38.43;99788.81;5099139;28;8848;-78
2023/08/14 07:22:42;;;;;;;;;23.00;22.20;;;;;24.61;37.60;99780.84;5056925;28;8922;-78
2023/08/14 07:25:11;;;;;;;;;20.20;19.40;;;;;24.59;38.19;99790.84;5028900;28;8839;-79
2023/08/14 07:27:40;;;;;;;;;24.00;24.00;;;;;24.55;38.15;99788.38;5063176;28;8858;-78
2023/08/14 07:30:10;;;;;;;;;25.75;24.25;;;;;24.59;38.84;99786.31;5044417;28;8886;-81
2023/08/14 07:32:39;;;;;;;;;25.50;25.50;;;;;24.74;37.68;99781.63;5089858;28;8869;-78
2023/08/14 07:35:08;;;;;;;;;23.80;22.60;;;;;24.85;37.46;99787.06;5099576;28;8837;-79
2023/08/14 07:37:37;;;;;;;;;25.75;25.75;;;;;24.80;38.23;99786.53;5092509;28;9012;-78
2023/08/14 07:40:09;;;;;;;;;23.80;23.80;;;;;24.90;38.50;99792.06;5103961;28;8893;-80
2023/08/14 07:42:38;;;;;;;;;26.80;25.60;;;;;25.06;37.69;99797.13;5113351;28;8836;-78
2023/08/14 07:45:07;;;;;;;;;23.00;21.60;;;;;25.17;38.05;99798.94;5114166;28;8968;-80
2023/08/14 07:47:36;;;;;;;;;24.60;23.60;;;;;25.09;38.07;99797.72;5096228;28;9650;-79
2023/08/14 07:50:06;;;;;;;;;22.40;22.40;;;;;25.29;37.69;99798.00;5039775;28;8975;-82
2023/08/14 07:52:35;;;;;;;;;22.40;22.40;;;;;25.41;37.44;99793.50;5058370;28;9081;-77
2023/08/14 07:55:04;;;;;;;;;25.80;25.00;;;;;25.29;37.19;99795.31;5057378;28;8852;-80
2023/08/14 07:57:34;;;;;;;;;25.60;25.60;;;;;25.47;37.67;99801.97;5107204;28;8946;-77
2023/08/14 08:00:07;;;;;;;;;24.00;24.00;;;;;25.37;37.13;99802.81;5058319;28;8895;-77
2023/08/14 08:02:39;;;;;;;;;25.00;24.75;;;;;25.43;37.49;99796.94;5113376;28;8936;-75
2023/08/14 08:05:08;;;;;;;;;27.80;26.80;;;;;25.56;37.71;99800.34;5062698;28;8834;-79
2023/08/14 08:07:37;;;;;;;;;23.60;23.20;;;;;25.70;37.43;99791.19;5059427;28;9639;-79
2023/08/14 08:10:07;;;;;;;;;24.00;24.00;;;;;25.68;37.63;99798.50;5090714;28;9619;-78
2023/08/14 08:12:37;;;;;;;;;30.00;28.25;;;;;25.81;37.28;99795.69;5097550;28;8878;-79
2023/08/14 08:15:07;;;;;;;;;27.25;25.50;;;;;25.98;36.88;99797.03;5110200;28;8852;-79
2023/08/14 08:17:36;;;;;;;;;25.25;25.25;;;;;26.02;36.78;99796.69;5100002;28;8862;-78
2023/08/14 08:20:06;;;;;;;;;25.25;24.00;;;;;25.98;36.67;99800.56;5093898;28;8848;-77
2023/08/14 08:22:35;;;;;;;;;28.25;25.50;;;;;26.02;36.92;99802.06;5078563;28;8888;-78
2023/08/14 08:25:05;;;;;;;;;26.25;25.25;;;;;26.08;36.84;99798.84;5102177;28;9575;-78
2023/08/14 08:27:37;;;;;;;;;26.00;26.00;;;;;26.02;36.58;99798.50;5042003;28;8853;-78
2023/08/14 08:30:07;;;;;;;;;25.25;24.00;;;;;26.13;36.74;99798.47;5053602;28;8853;-80
2023/08/14 08:32:36;;;;;;;;;25.20;25.20;;;;;26.25;36.46;99794.78;5015880;28;8853;-79
2023/08/14 08:35:05;;;;;;;;;24.00;23.20;;;;;26.26;35.80;99792.91;5049933;28;9071;-79
2023/08/14 08:37:34;;;;;;;;;23.50;23.50;;;;;26.35;36.23;99794.00;5106695;28;8851;-82
2023/08/14 08:40:05;;;;;;;;;23.00;23.00;;;;;26.40;36.39;99794.44;5074850;28;8861;-80
2023/08/14 08:42:34;;;;;;;;;23.40;23.40;;;;;26.47;36.53;99782.22;5084181;28;8824;-79
2023/08/14 08:45:07;;;;;;;;;26.25;24.75;;;;;26.49;37.00;99796.41;5105377;28;8834;-78
2023/08/14 08:47:39;;;;;;;;;28.50;27.25;;;;;26.69;36.89;99792.03;5069266;28;8849;-78
2023/08/14 08:50:10;;;;;;;;;24.20;24.00;;;;;26.66;36.21;99795.00;5073603;28;8872;-78
2023/08/14 08:52:39;;;;;;;;;23.20;23.20;;;;;26.72;36.47;99799.00;5103489;28;8900;-78
2023/08/14 08:55:09;;;;;;;;;26.50;25.75;;;;;26.76;36.33;99798.63;5092301;28;8862;-78
2023/08/14 08:57:39;;;;;;;;;24.25;24.25;;;;;26.87;35.69;99792.31;5101103;28;8902;-78
2023/08/14 09:00:11;;;;;;;;;27.75;25.75;;;;;26.92;35.51;99792.78;5090882;28;8846;-78
2023/08/14 09:02:40;;;;;;;;;24.00;24.00;;;;;26.95;35.88;99792.53;5103327;28;8854;-79
2023/08/14 09:05:09;;;;;;;;;24.50;23.00;;;;;26.96;35.31;99799.59;5072904;28;8853;-77
2023/08/14 09:07:38;;;;;;;;;23.40;22.40;;;;;26.97;34.99;99795.09;5104809;28;9071;-77
2023/08/14 09:10:08;;;;;;;;;23.40;22.80;;;;;26.88;35.56;99793.19;5108831;28;8924;-78
2023/08/14 09:12:37;;;;;;;;;24.20;22.80;;;;;26.94;35.56;99798.88;5054827;28;8859;-77
2023/08/14 09:15:08;;;;;;;;;25.50;25.50;;;;;27.11;35.65;99788.53;5064109;28;8882;-78
2023/08/14 09:17:38;;;;;;;;;24.00;22.40;;;;;27.09;35.39;99793.19;5084076;28;8850;-78
2023/08/14 09:20:14;;;;;;;;;20.40;20.00;;;;;27.02;35.28;99790.16;5093687;28;8850;-76
2023/08/14 09:22:58;;;;;;;;;19.80;19.80;;;;;27.18;34.91;99789.69;5075622;28;8845;-82
2023/08/14 09:25:27;;;;;;;;;21.80;20.80;;;;;27.03;35.61;99786.50;5105134;28;8851;-79
2023/08/14 09:27:57;;;;;;;;;20.75;20.00;;;;;27.20;35.45;99793.97;5109332;28;8851;-79
2023/08/14 09:30:26;;;;;;;;;20.80;20.80;;;;;27.24;34.89;99784.59;5108410;28;8847;-80
2023/08/14 09:32:56;;;;;;;;;22.50;22.00;;;;;27.18;34.70;99787.84;5057283;28;9009;-78
2023/08/14 09:35:26;;;;;;;;;21.80;21.80;;;;;27.31;34.92;99779.53;5094446;28;8843;-78
2023/08/14 09:37:54;;;;;;;;;18.80;18.20;;;;;27.35;34.84;99780.97;5107153;28;8852;-78
2023/08/14 09:40:23;;;;;;;;;23.40;22.40;;;;;27.48;34.81;99783.44;5092297;28;8987;-79
2023/08/14 09:42:53;;;;;;;;;23.00;23.00;;;;;27.39;34.87;99776.16;5103969;28;8902;-78
2023/08/14 09:45:23;;;;;;;;;16.80;16.80;;;;;27.52;34.34;99771.38;5089532;28;8849;-77
2023/08/14 09:47:57;;;;;;;;;17.60;16.20;;;;;27.60;33.49;99773.44;5087960;28;8889;-79
2023/08/14 09:50:29;;;;;;;;;22.40;22.40;;;;;27.59;32.99;99769.00;5092998;28;8943;-76
2023/08/14 09:52:59;;;;;;;;;18.20;18.20;;;;;27.67;33.26;99773.72;5105716;28;8847;-79
2023/08/14 09:55:28;;;;;;;;;18.20;18.20;;;;;27.66;31.42;99762.06;5100100;28;8872;-80
2023/08/14 09:57:57;;;;;;;;;19.60;19.40;;;;;27.72;31.63;99764.22;5079786;28;8866;-80
2023/08/14 10:00:30;;;;;;;;;22.00;21.00;;;;;27.75;32.86;99760.41;5096667;28;8856;-78
2023/08/14 10:03:00;;;;;;;;;16.60;16.60;;;;;27.61;31.77;99759.81;5108154;28;8883;-77
2023/08/14 10:05:37;;;;;;;;;16.80;16.00;;;;;27.67;31.08;99762.91;5100145;28;8885;-79
2023/08/14 10:08:08;;;;;;;;;15.40;15.20;;;;;27.73;31.42;99760.53;5099254;28;8879;-79
2023/08/14 10:10:40;;;;;;;;;15.80;15.80;;;;;27.78;31.50;99765.50;5106896;28;8928;-80
2023/08/14 10:13:11;;;;;;;;;16.60;16.60;;;;;27.67;30.09;99757.50;5108235;28;9007;-78
2023/08/14 10:15:44;;;;;;;;;16.60;16.60;;;;;27.82;30.50;99761.56;5038746;28;8981;-79
2023/08/14 10:18:16;;;;;;;;;17.60;17.60;;;;;27.96;31.39;99757.59;5090572;28;8805;-77
2023/08/14 10:20:49;;;;;;;;;16.60;16.60;;;;;27.96;30.65;99757.59;5098906;28;8864;-79
2023/08/14 10:23:19;;;;;;;;;17.00;17.00;;;;;27.87;30.80;99753.03;5109685;28;8863;-79
2023/08/14 10:25:51;;;;;;;;;20.40;18.60;;;;;27.80;30.36;99750.91;5093555;28;8918;-79
2023/08/14 10:28:21;;;;;;;;;17.40;17.40;;;;;27.87;30.83;99748.47;5092499;28;8858;-79
2023/08/14 10:30:50;;;;;;;;;20.60;19.60;;;;;28.00;30.31;99738.25;5105471;28;8826;-80
2023/08/14 10:33:20;;;;;;;;;17.20;16.60;;;;;28.01;29.62;99748.06;5099697;28;8850;-78
2023/08/14 10:35:53;;;;;;;;;18.00;18.00;;;;;27.78;30.24;99738.50;5080394;28;8866;-77
2023/08/14 10:38:25;;;;;;;;;15.40;15.40;;;;;27.91;30.47;99740.94;5099761;28;8923;-80
2023/08/14 10:40:56;;;;;;;;;19.00;17.00;;;;;27.98;30.62;99734.00;5057707;28;8884;-80
2023/08/14 10:43:29;;;;;;;;;18.60;17.40;;;;;28.10;30.80;99732.00;5097020;28;8967;-78
2023/08/14 10:45:59;;;;;;;;;18.40;18.20;;;;;28.10;30.80;99726.59;5108613;28;8854;-79
2023/08/14 10:48:35;;;;;;;;;19.80;19.00;;;;;28.00;30.49;99732.84;5095913;28;8926;-77
2023/08/14 10:51:08;;;;;;;;;20.80;20.40;;;;;28.01;30.92;99731.88;5099219;28;8866;-76
2023/08/14 10:53:37;;;;;;;;;16.00;16.00;;;;;28.22;30.40;99731.75;5041403;28;9480;-76
2023/08/14 10:56:06;;;;;;;;;16.40;16.20;;;;;28.38;30.38;99724.94;5091061;28;8857;-76
2023/08/14 10:58:47;;;;;;;;;18.60;18.40;;;;;28.22;29.27;99722.81;5073408;28;8857;-76
2023/08/14 11:01:18;;;;;;;;;14.80;14.80;;;;;28.10;29.72;99722.06;5091748;28;8953;-77
2023/08/14 11:04:04;;;;;;;;;17.80;17.80;;;;;28.16;30.61;99720.69;5090920;28;9047;-76
2023/08/14 11:07:08;;;;;;;;;16.80;16.20;;;;;28.17;29.98;99714.25;5094416;28;8880;-76
2023/08/14 11:09:38;;;;;;;;;16.00;14.80;;;;;28.39;29.68;99713.13;5106423;28;9774;-78
2023/08/14 11:12:10;;;;;;;;;22.40;19.40;;;;;28.32;29.39;99720.94;5102819;28;8881;-82
2023/08/14 11:14:40;;;;;;;;;15.40;15.40;;;;;28.45;28.86;99711.69;5103581;28;8849;-77
2023/08/14 11:17:10;;;;;;;;;15.20;15.00;;;;;28.52;28.25;99710.97;5101375;28;8943;-79
2023/08/14 11:19:39;;;;;;;;;15.40;14.80;;;;;28.69;28.91;99714.81;5092679;28;8987;-78
2023/08/14 11:22:10;;;;;;;;;16.80;16.20;;;;;28.97;28.16;99715.75;5079221;28;8988;-78
2023/08/14 11:24:38;;;;;;;;;16.20;16.20;;;;;29.17;27.44;99705.72;5029000;28;8946;-78
2023/08/14 11:27:07;;;;;;;;;16.80;16.80;;;;;29.43;27.38;99701.50;5081979;28;8872;-77
2023/08/14 11:29:37;;;;;;;;;18.40;17.20;;;;;29.44;27.57;99704.00;5067790;28;8870;-77
2023/08/14 11:32:20;;;;;;;;;19.20;18.60;;;;;29.70;28.01;99700.63;5100430;28;10020;-78
2023/08/14 11:34:51;;;;;;;;;18.50;18.50;;;;;29.92;27.90;99702.91;5095281;28;8842;-79
2023/08/14 11:37:22;;;;;;;;;19.60;17.20;;;;;29.99;27.62;99696.84;5093034;28;8986;-79